createdAt,value
2022-08-20T00:02:54.485Z,97059.69
2022-08-20T00:07:49.413Z,97079.78
2022-08-20T00:12:48.615Z,97072.94
2022-08-20T00:17:43.071Z,97069.28
2022-08-20T00:22:36.637Z,97078.25
2022-08-20T00:27:31.570Z,97079.50
2022-08-20T00:32:25.180Z,97076.81
2022-08-20T00:37:18.615Z,97090.16
2022-08-20T00:42:12.425Z,97080.84
2022-08-20T00:47:09.330Z,97073.13
2022-08-20T00:52:09.200Z,97070.41
2022-08-20T00:57:08.385Z,97066.88
2022-08-20T01:02:03.505Z,97067.34
2022-08-20T01:06:58.760Z,97082.69
2022-08-20T01:11:52.230Z,97085.25
2022-08-20T01:16:49.431Z,97079.53
2022-08-20T01:21:45.846Z,97088.97
2022-08-20T01:26:47.457Z,97091.88
2022-08-20T01:31:42.828Z,97094.56
2022-08-20T01:36:45.586Z,97083.63
2022-08-20T01:42:08.571Z,97084.91
2022-08-20T01:47:22.934Z,97084.00
2022-08-20T01:52:25.914Z,97090.06
2022-08-20T01:57:26.824Z,97095.31
2022-08-20T02:02:20.796Z,97095.59
2022-08-20T02:07:19.104Z,97096.72
2022-08-20T02:12:14.367Z,97098.69
2022-08-20T02:17:09.386Z,97087.28
2022-08-20T02:22:13.547Z,97089.75
2022-08-20T02:27:07.122Z,97088.47
2022-08-20T02:32:32.396Z,97094.16
2022-08-20T02:37:18.435Z,97094.97
2022-08-20T02:42:12.458Z,97090.03
2022-08-20T02:47:07.415Z,97092.50
2022-08-20T02:52:01.017Z,97091.50
2022-08-20T02:56:55.984Z,97075.59
2022-08-20T03:01:56.660Z,97075.88
2022-08-20T03:06:54.106Z,97067.28
2022-08-20T03:11:47.424Z,97064.09
2022-08-20T03:16:43.107Z,97065.00
2022-08-20T03:21:36.806Z,97064.63
2022-08-20T03:26:30.137Z,97065.63
2022-08-20T03:31:24.364Z,97064.56
2022-08-20T03:36:20.802Z,97067.97
2022-08-20T03:41:21.345Z,97055.19
2022-08-20T03:46:22.031Z,97053.16
2022-08-20T03:51:18.627Z,97051.50
2022-08-20T03:56:11.994Z,97046.84
2022-08-20T04:01:32.101Z,97048.16
2022-08-20T04:06:23.050Z,97050.44
2022-08-20T04:11:16.384Z,97051.19
2022-08-20T04:16:11.752Z,97042.63
2022-08-20T04:21:08.169Z,97055.97
2022-08-20T04:26:02.923Z,97053.22
2022-08-20T04:30:58.799Z,97065.34
2022-08-20T04:35:52.100Z,97069.94
2022-08-20T04:40:58.205Z,97069.28
2022-08-20T04:45:54.088Z,97084.56
2022-08-20T04:50:48.350Z,97090.22
2022-08-20T04:55:44.181Z,97078.03
2022-08-20T05:00:37.863Z,97084.53
2022-08-20T05:05:35.049Z,97084.78
2022-08-20T05:10:29.791Z,97092.97
2022-08-20T05:15:24.567Z,97098.47
2022-08-20T05:20:19.784Z,97107.78
2022-08-20T05:25:14.547Z,97110.81
2022-08-20T05:30:13.567Z,97105.38
2022-08-20T05:35:10.799Z,97120.81
2022-08-20T05:40:10.347Z,97117.38
2022-08-20T05:45:10.975Z,97109.44
2022-08-20T05:50:06.532Z,97111.78
2022-08-20T05:55:00.131Z,97104.34
2022-08-20T05:59:53.958Z,97118.00
2022-08-20T06:04:48.659Z,97114.72
2022-08-20T06:09:49.857Z,97127.91
2022-08-20T06:14:43.436Z,97119.53
2022-08-20T06:19:38.521Z,97129.16
2022-08-20T06:24:33.592Z,97134.06
2022-08-20T06:29:28.292Z,97127.78
2022-08-20T06:34:21.741Z,97123.19
2022-08-20T06:39:16.663Z,97127.72
2022-08-20T06:44:11.408Z,97118.25
2022-08-20T06:49:05.997Z,97121.47
2022-08-20T06:53:59.781Z,97124.16
2022-08-20T06:58:53.126Z,97126.53
2022-08-20T07:03:55.483Z,97125.06
2022-08-20T07:08:49.465Z,97129.69
2022-08-20T07:13:42.865Z,97129.03
2022-08-20T07:18:36.435Z,97127.78
2022-08-20T07:23:31.826Z,97146.47
2022-08-20T07:28:28.932Z,97147.19
2022-08-20T07:33:22.704Z,97156.84
2022-08-20T07:38:24.029Z,97164.19
2022-08-20T07:43:19.190Z,97164.22
2022-08-20T07:48:27.902Z,97168.72
2022-08-20T07:53:26.956Z,97175.84
2022-08-20T07:58:23.998Z,97169.50
2022-08-20T08:03:39.913Z,97167.13
2022-08-20T08:08:43.648Z,97162.19
2022-08-20T08:13:42.393Z,97169.34
2022-08-20T08:18:42.136Z,97173.53
2022-08-20T08:23:36.211Z,97159.69
2022-08-20T08:28:30.647Z,97175.81
2022-08-20T08:33:29.427Z,97170.31
2022-08-20T08:38:24.268Z,97168.84
2022-08-20T08:43:21.283Z,97168.88
2022-08-20T08:48:18.811Z,97184.66
2022-08-20T08:53:23.825Z,97186.44
2022-08-20T08:58:17.608Z,97185.44
2022-08-20T09:03:18.548Z,97177.66
2022-08-20T09:08:19.426Z,97180.16
2022-08-20T09:13:12.907Z,97173.81
2022-08-20T09:18:06.396Z,97162.34
2022-08-20T09:22:59.884Z,97164.56
2022-08-20T09:27:54.727Z,97162.38
2022-08-20T09:32:48.150Z,97162.34
2022-08-20T09:37:41.635Z,97167.06
2022-08-20T09:42:41.437Z,97166.06
2022-08-20T09:47:36.658Z,97167.66
2022-08-20T09:52:40.225Z,97166.34
2022-08-20T09:57:40.099Z,97164.78
2022-08-20T10:03:00.892Z,97164.50
2022-08-20T10:07:55.861Z,97172.94
2022-08-20T10:12:54.600Z,97169.81
2022-08-20T10:18:04.426Z,97165.59
2022-08-20T10:22:59.930Z,97167.44
2022-08-20T10:27:53.866Z,97175.63
2022-08-20T10:32:47.380Z,97169.94
2022-08-20T10:37:42.255Z,97166.06
2022-08-20T10:42:40.449Z,97168.38
2022-08-20T10:47:35.766Z,97162.84
2022-08-20T10:52:29.916Z,97164.50
2022-08-20T10:57:29.372Z,97158.50
2022-08-20T11:02:24.653Z,97158.78
2022-08-20T11:07:21.877Z,97163.19
2022-08-20T11:12:37.175Z,97158.69
2022-08-20T11:17:33.800Z,97164.53
2022-08-20T11:22:30.638Z,97155.78
2022-08-20T11:27:26.659Z,97152.31
2022-08-20T11:32:22.518Z,97171.56
2022-08-20T11:37:18.566Z,97164.59
2022-08-20T11:42:12.971Z,97166.59
2022-08-20T11:47:08.407Z,97165.34
2022-08-20T11:56:58.910Z,97166.22
2022-08-20T12:07:11.181Z,97163.25
2022-08-20T12:42:58.817Z,97155.97
2022-08-20T12:47:52.207Z,97154.38
2022-08-20T12:58:22.282Z,97134.88
2022-08-20T13:03:16.071Z,97147.91
2022-08-20T13:08:12.148Z,97141.53
2022-08-20T13:13:05.823Z,97134.94
2022-08-20T13:18:04.433Z,97139.56
2022-08-20T13:22:58.476Z,97138.56
2022-08-20T13:27:57.134Z,97138.09
2022-08-20T13:32:50.628Z,97141.50
2022-08-20T13:37:45.529Z,97141.56
2022-08-20T13:42:40.051Z,97143.25
2022-08-20T13:47:38.200Z,97135.63
2022-08-20T13:52:32.055Z,97143.53
2022-08-20T13:57:28.017Z,97135.75
2022-08-20T14:02:22.546Z,97151.41
2022-08-20T14:07:19.125Z,97146.44
2022-08-20T14:12:14.268Z,97143.72
2022-08-20T14:17:21.901Z,97157.59
2022-08-20T14:22:17.443Z,97148.25
2022-08-20T14:27:10.831Z,97143.03
2022-08-20T14:32:05.672Z,97140.38
2022-08-20T14:37:13.014Z,97143.84
2022-08-20T14:42:07.182Z,97137.69
2022-08-20T14:47:13.702Z,97138.38
2022-08-20T14:52:08.975Z,97133.84
2022-08-20T15:02:15.906Z,97137.78
2022-08-20T15:17:32.322Z,97150.94
2022-08-20T15:27:27.419Z,97159.41
2022-08-20T15:32:22.362Z,97171.94
2022-08-20T15:37:19.852Z,97162.09
2022-08-20T16:18:36.270Z,97156.34
2022-08-20T16:59:35.612Z,97155.06
2022-08-20T17:09:31.337Z,97150.38
2022-08-20T17:14:27.172Z,97153.72
2022-08-20T17:19:26.324Z,97142.22
2022-08-20T17:24:28.326Z,97150.22
2022-08-20T17:29:25.679Z,97152.06
2022-08-20T17:34:22.429Z,97142.06
2022-08-20T17:39:20.388Z,97146.09
2022-08-20T17:44:23.871Z,97147.41
2022-08-20T17:49:22.003Z,97154.31
2022-08-20T17:54:27.220Z,97139.66
2022-08-20T18:00:01.158Z,97148.84
2022-08-20T18:04:48.230Z,97151.53
2022-08-20T18:09:57.251Z,97142.25
2022-08-20T18:15:04.141Z,97157.88
2022-08-20T18:20:25.158Z,97158.53
2022-08-20T18:25:36.564Z,97155.56
2022-08-20T18:30:34.685Z,97150.72
2022-08-20T18:35:38.742Z,97159.19
2022-08-20T18:40:41.579Z,97164.53
2022-08-20T18:45:37.979Z,97168.00
2022-08-20T18:50:45.500Z,97169.00
2022-08-20T18:55:42.697Z,97171.66
2022-08-20T19:00:43.172Z,97176.47
2022-08-20T19:05:48.494Z,97168.97
2022-08-20T19:16:03.398Z,97176.75
2022-08-20T19:21:01.611Z,97180.09
2022-08-20T19:31:16.912Z,97188.88
2022-08-20T19:36:14.678Z,97198.66
2022-08-20T19:46:27.429Z,97199.88
2022-08-20T19:51:30.784Z,97200.06
2022-08-20T19:56:29.306Z,97192.94
2022-08-20T20:22:24.608Z,97210.22
2022-08-20T22:11:24.954Z,97205.84
2022-08-20T22:32:51.990Z,97217.66
